Time;durP1;ratioP1;P1;durP2;ratioP2;P2;SDS_P1;SDS_P2;PMS_P1;PMS_P2;Temp;Humidity;BMP_temperature;BMP_pressure;BME280_temperature;BME280_humidity;BME280_pressure;Samples;Min_cycle;Max_cycle;Signal;HPM_P1;HPM_P2
2022/09/15 00:01:13;;;;;;;1999.90;999.90;;;15.10;99.90;;;;;;5013264;28;20741;-69
2022/09/15 00:03:39;;;;;;;1999.90;999.90;;;15.20;99.90;;;;;;5013563;28;20418;-70
2022/09/15 00:06:06;;;;;;;1999.90;999.90;;;15.10;99.90;;;;;;5013427;28;20403;-69
2022/09/15 00:08:32;;;;;;;1999.90;999.90;;;15.10;99.90;;;;;;5013334;28;20439;-70
2022/09/15 00:11:06;;;;;;;1999.90;999.90;;;15.10;99.90;;;;;;5013417;28;20451;-69
2022/09/15 00:13:32;;;;;;;1999.90;999.90;;;15.00;99.90;;;;;;5013399;28;20408;-69
2022/09/15 00:15:58;;;;;;;1999.90;999.90;;;15.00;99.90;;;;;;5013274;28;20419;-70
2022/09/15 00:18:24;;;;;;;1999.90;999.90;;;15.00;99.90;;;;;;5013135;28;20414;-70
2022/09/15 00:20:49;;;;;;;1999.90;999.90;;;15.00;99.90;;;;;;5013104;28;20192;-70
2022/09/15 00:23:16;;;;;;;1999.90;999.90;;;15.00;99.90;;;;;;5013216;28;20688;-70
2022/09/15 00:25:47;;;;;;;1999.90;999.90;;;15.00;99.90;;;;;;5013086;28;20173;-69
2022/09/15 00:28:15;;;;;;;1999.90;999.90;;;15.00;99.90;;;;;;5012958;28;20398;-70
2022/09/15 00:30:46;;;;;;;1999.90;999.90;;;15.00;99.90;;;;;;5013158;28;20409;-70
2022/09/15 00:33:13;;;;;;;1999.90;999.90;;;15.00;99.90;;;;;;5013109;28;20421;-70
2022/09/15 00:35:40;;;;;;;1999.90;999.90;;;15.10;99.90;;;;;;5013157;28;20406;-70
2022/09/15 00:38:07;;;;;;;1999.90;999.90;;;15.10;99.90;;;;;;5012846;28;20413;-70
2022/09/15 00:40:41;;;;;;;1999.90;999.90;;;15.10;99.90;;;;;;5012999;28;20452;-70
2022/09/15 00:43:09;;;;;;;1999.90;999.90;;;15.10;99.90;;;;;;5013214;28;20957;-70
2022/09/15 00:45:35;;;;;;;1999.90;999.90;;;15.10;99.90;;;;;;5012930;28;20415;-70
2022/09/15 00:48:03;;;;;;;1999.90;999.90;;;15.10;99.90;;;;;;5012662;28;20772;-70
2022/09/15 00:50:31;;;;;;;1999.90;999.90;;;15.10;99.90;;;;;;5012724;28;20422;-70
2022/09/15 00:53:00;;;;;;;1999.90;999.90;;;15.10;99.90;;;;;;5012743;28;20436;-70
2022/09/15 00:55:33;;;;;;;1999.90;999.90;;;15.10;99.90;;;;;;5013071;28;20422;-71
2022/09/15 00:58:06;;;;;;;1999.90;999.90;;;15.10;99.90;;;;;;5012548;28;20413;-70
2022/09/15 01:00:32;;;;;;;1999.90;999.90;;;15.10;99.90;;;;;;5012549;28;20448;-70
2022/09/15 01:02:58;;;;;;;1999.90;999.90;;;15.10;99.90;;;;;;5012605;28;20437;-70
2022/09/15 01:05:35;;;;;;;1999.90;999.90;;;15.20;99.90;;;;;;5012547;28;20407;-70
2022/09/15 01:08:03;;;;;;;1999.90;999.90;;;15.20;99.90;;;;;;5012363;28;20404;-70
2022/09/15 01:10:32;;;;;;;1999.90;999.90;;;15.10;99.90;;;;;;5012557;28;20409;-70
2022/09/15 01:13:01;;;;;;;1999.90;999.90;;;15.10;99.90;;;;;;5011931;28;20454;-70
2022/09/15 01:15:53;;;;;;;1999.90;999.90;;;15.10;99.90;;;;;;5012315;28;20412;-70
2022/09/15 01:18:27;;;;;;;1999.90;999.90;;;15.00;99.90;;;;;;5012245;28;20420;-70
2022/09/15 01:21:00;;;;;;;1999.90;999.90;;;15.00;99.90;;;;;;5012097;28;20519;-70
2022/09/15 01:23:34;;;;;;;1999.90;999.90;;;15.00;99.90;;;;;;5012349;28;20409;-70
2022/09/15 01:26:08;;;;;;;1999.90;999.90;;;15.00;99.90;;;;;;5012347;28;20794;-70
2022/09/15 01:29:07;;;;;;;1999.90;999.90;;;14.90;99.90;;;;;;5012144;28;20400;-70
2022/09/15 01:33:02;;;;;;;1999.90;999.90;;;15.00;99.90;;;;;;5012334;28;20444;-70
2022/09/15 01:34:25;;;;;;;1999.90;999.90;;;15.10;99.90;;;;;;5012195;28;20447;-70
2022/09/15 01:37:08;;;;;;;1999.90;999.90;;;15.10;99.90;;;;;;5011975;28;20409;-69
2022/09/15 01:39:42;;;;;;;1999.90;999.90;;;15.20;99.90;;;;;;5012430;28;20414;-69
2022/09/15 01:42:11;;;;;;;1999.90;999.90;;;15.20;99.90;;;;;;5012167;28;20492;-70
2022/09/15 01:44:44;;;;;;;1999.90;999.90;;;15.20;99.90;;;;;;5012139;28;20408;-70
2022/09/15 01:47:13;;;;;;;1999.90;999.90;;;15.20;99.90;;;;;;5012316;28;20405;-69
2022/09/15 01:49:47;;;;;;;1999.90;999.90;;;15.10;99.90;;;;;;4994606;28;20432;-70
2022/09/15 01:52:16;;;;;;;1999.90;999.90;;;15.10;99.90;;;;;;5012075;28;20805;-70
2022/09/15 01:54:47;;;;;;;1999.90;999.90;;;15.00;99.90;;;;;;5012066;28;20404;-69
2022/09/15 01:57:20;;;;;;;1999.90;999.90;;;14.90;99.90;;;;;;5012044;28;20496;-69
2022/09/15 01:59:46;;;;;;;1999.90;999.90;;;14.90;99.90;;;;;;5012566;28;20398;-69
2022/09/15 02:02:23;;;;;;;1999.90;999.90;;;14.90;99.90;;;;;;5012050;28;20874;-70
2022/09/15 02:04:58;;;;;;;1999.90;999.90;;;14.90;99.90;;;;;;5012105;28;20405;-69
2022/09/15 02:07:52;;;;;;;1999.90;999.90;;;14.80;99.90;;;;;;5011997;28;20402;-69
2022/09/15 02:10:36;;;;;;;1999.90;999.90;;;14.60;99.90;;;;;;5012161;28;20465;-70
2022/09/15 02:13:15;;;;;;;1999.90;999.90;;;14.60;99.90;;;;;;5012088;28;20509;-69
2022/09/15 02:15:56;;;;;;;1999.90;999.90;;;14.50;99.90;;;;;;5011970;28;20477;-70
2022/09/15 02:18:47;;;;;;;1999.90;999.90;;;14.50;99.90;;;;;;5011789;28;20399;-69
2022/09/15 02:21:19;;;;;;;1999.90;999.90;;;14.50;99.90;;;;;;5011659;28;20864;-69
2022/09/15 02:23:51;;;;;;;1999.90;999.90;;;14.70;99.90;;;;;;5013076;28;20400;-69
2022/09/15 02:26:23;;;;;;;1999.90;999.90;;;14.60;99.90;;;;;;5015426;28;21001;-69
2022/09/15 02:28:50;;;;;;;1999.90;999.90;;;14.60;99.90;;;;;;5015396;28;20405;-69
2022/09/15 02:31:19;;;;;;;1999.90;999.90;;;14.60;99.90;;;;;;5015354;28;20425;-70
2022/09/15 02:33:50;;;;;;;1999.90;999.90;;;14.70;99.90;;;;;;5015330;28;20396;-70
2022/09/15 02:36:19;;;;;;;1999.90;999.90;;;14.60;99.90;;;;;;5015223;28;20411;-70
2022/09/15 02:38:54;;;;;;;1999.90;999.90;;;14.50;99.90;;;;;;5014991;28;20408;-69
2022/09/15 02:41:20;;;;;;;1999.90;999.90;;;14.40;99.90;;;;;;5015203;28;20522;-69
2022/09/15 02:43:48;;;;;;;1999.90;999.90;;;14.40;99.90;;;;;;5015254;28;20799;-69
2022/09/15 02:46:15;;;;;;;1999.90;999.90;;;14.40;99.90;;;;;;5015120;28;20406;-69
2022/09/15 02:48:41;;;;;;;1999.90;999.90;;;14.40;99.90;;;;;;5014894;28;20454;-69
2022/09/15 02:51:07;;;;;;;1999.90;999.90;;;14.40;99.90;;;;;;5014975;28;20406;-70
2022/09/15 02:53:33;;;;;;;1999.90;999.90;;;14.30;99.90;;;;;;5014881;28;20407;-69
2022/09/15 02:55:58;;;;;;;1999.90;999.90;;;14.20;99.90;;;;;;5014844;28;20406;-69
2022/09/15 02:58:24;;;;;;;1999.90;999.90;;;14.20;99.90;;;;;;5014792;28;20511;-70
2022/09/15 03:00:50;;;;;;;1999.90;999.90;;;14.20;99.90;;;;;;5015205;28;20455;-69
2022/09/15 03:03:17;;;;;;;1999.90;999.90;;;14.20;99.90;;;;;;5015114;28;20724;-70
2022/09/15 03:05:43;;;;;;;1999.90;999.90;;;14.20;99.90;;;;;;5014936;28;20435;-70
2022/09/15 03:08:09;;;;;;;1999.90;999.90;;;14.10;99.90;;;;;;5014795;28;20442;-70
2022/09/15 03:10:34;;;;;;;1999.90;999.90;;;14.10;99.90;;;;;;5014808;28;20186;-70
2022/09/15 03:13:00;;;;;;;1999.90;999.90;;;14.10;99.90;;;;;;5014594;28;20258;-69
2022/09/15 03:15:26;;;;;;;1999.90;999.90;;;14.10;99.90;;;;;;5014850;28;20170;-69
2022/09/15 03:17:53;;;;;;;1999.90;999.90;;;14.10;99.90;;;;;;5014347;28;20562;-70
2022/09/15 03:20:21;;;;;;;1999.90;999.90;;;14.20;99.90;;;;;;5014398;28;20533;-70
2022/09/15 03:22:48;;;;;;;1999.90;999.90;;;14.10;99.90;;;;;;5014167;28;20446;-70
2022/09/15 03:25:14;;;;;;;1999.90;999.90;;;14.10;99.90;;;;;;5014358;28;20407;-70
2022/09/15 03:27:41;;;;;;;1999.90;999.90;;;14.00;99.90;;;;;;4996640;28;20495;-69
2022/09/15 03:30:08;;;;;;;1999.90;999.90;;;14.00;99.90;;;;;;5014296;28;20766;-70
2022/09/15 03:32:34;;;;;;;1999.90;999.90;;;14.00;99.90;;;;;;5014441;28;21201;-70
2022/09/15 03:35:00;;;;;;;1999.90;999.90;;;14.10;99.90;;;;;;5013625;28;20412;-70
2022/09/15 03:37:25;;;;;;;1999.90;999.90;;;14.10;99.90;;;;;;5013835;28;20500;-69
2022/09/15 03:39:51;;;;;;;1999.90;999.90;;;14.10;99.90;;;;;;5014074;28;20172;-70
2022/09/15 03:42:16;;;;;;;1999.90;999.90;;;14.20;99.90;;;;;;5013833;28;20247;-69
2022/09/15 03:44:42;;;;;;;1999.90;999.90;;;14.20;99.90;;;;;;5013938;28;20165;-70
2022/09/15 03:47:08;;;;;;;1999.90;999.90;;;14.10;99.90;;;;;;5013677;28;20168;-70
2022/09/15 03:49:33;;;;;;;1999.90;999.90;;;14.10;99.90;;;;;;5014006;28;20222;-69
2022/09/15 03:51:59;;;;;;;1999.90;999.90;;;14.00;99.90;;;;;;5013805;28;20199;-69
2022/09/15 03:54:26;;;;;;;1999.90;999.90;;;14.00;99.90;;;;;;5013953;28;20208;-69
2022/09/15 03:56:51;;;;;;;1999.90;999.90;;;13.90;99.90;;;;;;5013427;28;20258;-70
2022/09/15 03:59:18;;;;;;;1999.90;999.90;;;13.90;99.90;;;;;;5013808;28;20506;-69
2022/09/15 04:01:45;;;;;;;1999.90;999.90;;;13.90;99.90;;;;;;5013562;28;20205;-70
2022/09/15 04:04:11;;;;;;;1999.90;999.90;;;13.90;99.90;;;;;;5013647;28;20402;-70
2022/09/15 04:06:37;;;;;;;1999.90;999.90;;;13.80;99.90;;;;;;5013314;28;20405;-70
2022/09/15 04:09:03;;;;;;;1999.90;999.90;;;13.80;99.90;;;;;;5013555;28;20410;-69
2022/09/15 04:11:30;;;;;;;1999.90;999.90;;;13.90;99.90;;;;;;5013315;28;20425;-70
2022/09/15 04:13:56;;;;;;;1999.90;999.90;;;13.90;99.90;;;;;;5013450;28;20416;-70
2022/09/15 04:16:24;;;;;;;1999.90;999.90;;;13.90;99.90;;;;;;5013217;28;20414;-69
2022/09/15 04:18:51;;;;;;;1999.90;999.90;;;14.00;99.90;;;;;;5013264;28;20260;-69
2022/09/15 04:21:19;;;;;;;1999.90;999.90;;;14.00;99.90;;;;;;5013018;28;20474;-69
2022/09/15 04:23:46;;;;;;;1999.90;999.90;;;14.00;99.90;;;;;;5013253;28;20589;-70
2022/09/15 04:26:22;;;;;;;1999.90;999.90;;;14.10;99.90;;;;;;5013158;28;20459;-69
2022/09/15 04:28:48;;;;;;;1999.90;999.90;;;14.20;99.90;;;;;;5013226;28;20401;-70
2022/09/15 04:31:15;;;;;;;1999.90;999.90;;;14.20;99.90;;;;;;5013003;28;20510;-70
2022/09/15 04:33:43;;;;;;;1999.90;999.90;;;14.20;99.90;;;;;;5013070;28;20206;-70
2022/09/15 04:36:12;;;;;;;1999.90;999.90;;;14.20;99.90;;;;;;5012900;28;20425;-70
2022/09/15 04:38:38;;;;;;;1999.90;999.90;;;14.30;99.90;;;;;;5012818;28;20404;-69
2022/09/15 04:41:04;;;;;;;1999.90;999.90;;;14.40;99.90;;;;;;5012754;28;20527;-70
2022/09/15 04:43:30;;;;;;;1999.90;999.90;;;14.50;99.90;;;;;;5013141;28;20542;-70
2022/09/15 04:45:56;;;;;;;1999.90;999.90;;;14.50;99.90;;;;;;5012689;28;20410;-69
2022/09/15 04:48:22;;;;;;;1999.90;999.90;;;14.60;99.90;;;;;;5011854;28;20775;-69
2022/09/15 04:50:48;;;;;;;1999.90;999.90;;;14.60;99.90;;;;;;5012818;28;20177;-70
2022/09/15 04:53:14;;;;;;;1999.90;999.90;;;14.60;99.90;;;;;;5012710;28;20971;-70
2022/09/15 04:55:39;;;;;;;1999.90;999.90;;;14.50;99.90;;;;;;5012699;28;20251;-70
2022/09/15 04:58:05;;;;;;;1999.90;999.90;;;14.60;99.90;;;;;;5012442;28;20190;-70
2022/09/15 05:00:37;;;;;;;1999.90;999.90;;;14.40;99.90;;;;;;5012557;28;20276;-69
2022/09/15 05:03:02;;;;;;;1999.90;999.90;;;14.40;99.90;;;;;;5012638;28;20561;-69
2022/09/15 05:05:28;;;;;;;1999.90;999.90;;;14.30;99.90;;;;;;5012634;28;20405;-70
2022/09/15 05:07:53;;;;;;;1999.90;999.90;;;14.40;99.90;;;;;;5012263;28;20177;-70
2022/09/15 05:10:19;;;;;;;1999.90;999.90;;;14.40;99.90;;;;;;5012436;28;20168;-69
2022/09/15 05:12:45;;;;;;;1999.90;999.90;;;14.50;99.90;;;;;;5012366;28;20571;-70
2022/09/15 05:15:11;;;;;;;1999.90;999.90;;;14.50;99.90;;;;;;5012418;28;20414;-69
2022/09/15 05:17:37;;;;;;;1999.90;999.90;;;14.50;99.90;;;;;;5012343;28;20168;-70
2022/09/15 05:20:03;;;;;;;1999.90;999.90;;;14.60;99.90;;;;;;5012407;28;20422;-69
2022/09/15 05:22:30;;;;;;;1999.90;999.90;;;14.50;99.90;;;;;;5012021;28;20727;-69
2022/09/15 05:24:56;;;;;;;1999.90;999.90;;;14.50;99.90;;;;;;5012330;28;20515;-70
2022/09/15 05:27:21;;;;;;;1999.90;999.90;;;14.50;99.90;;;;;;5012014;28;20405;-70
2022/09/15 05:29:47;;;;;;;1999.90;999.90;;;14.60;99.90;;;;;;5012180;28;20559;-69
2022/09/15 05:32:13;;;;;;;1999.90;999.90;;;14.60;99.90;;;;;;5012189;28;20198;-71
2022/09/15 05:34:39;;;;;;;1999.90;999.90;;;14.50;99.90;;;;;;5012296;28;20496;-69
2022/09/15 05:37:04;;;;;;;1999.90;999.90;;;14.50;99.90;;;;;;5011999;28;20631;-69
2022/09/15 05:39:30;;;;;;;1999.90;999.90;;;14.40;99.90;;;;;;5012218;28;20204;-69
2022/09/15 05:41:55;;;;;;;1999.90;999.90;;;14.40;99.90;;;;;;5012187;28;20207;-69
2022/09/15 05:44:21;;;;;;;1999.90;999.90;;;14.50;99.90;;;;;;5012237;28;20162;-69
2022/09/15 05:46:47;;;;;;;1999.90;999.90;;;14.50;99.90;;;;;;5012163;28;20652;-69
2022/09/15 05:49:13;;;;;;;1999.90;999.90;;;14.40;99.90;;;;;;5012276;28;20182;-69
2022/09/15 05:51:39;;;;;;;1999.90;999.90;;;14.40;99.90;;;;;;5011968;28;20428;-70
2022/09/15 05:54:05;;;;;;;1999.90;999.90;;;14.40;99.90;;;;;;5012128;28;20212;-70
2022/09/15 05:56:31;;;;;;;1999.90;999.90;;;14.40;99.90;;;;;;5011824;28;20567;-70
2022/09/15 05:58:56;;;;;;;1999.90;999.90;;;14.40;99.90;;;;;;5013693;28;20411;-70
2022/09/15 06:01:27;;;;;;;1999.90;999.90;;;14.60;99.90;;;;;;5015887;28;20754;-70
2022/09/15 06:03:54;;;;;;;1999.90;999.90;;;14.50;99.90;;;;;;5015997;28;20205;-69
2022/09/15 06:06:20;;;;;;;1999.90;999.90;;;14.60;99.90;;;;;;5015899;28;20466;-70
2022/09/15 06:08:49;;;;;;;1999.90;999.90;;;14.70;99.90;;;;;;5015753;28;20491;-70
2022/09/15 06:11:20;;;;;;;1999.90;999.90;;;14.70;99.90;;;;;;5015725;28;20860;-69
2022/09/15 06:13:46;;;;;;;1999.90;999.90;;;14.80;99.90;;;;;;5015863;28;20531;-70
2022/09/15 06:16:18;;;;;;;1999.90;999.90;;;14.80;99.90;;;;;;5015535;28;20410;-70
2022/09/15 06:18:44;;;;;;;1999.90;999.90;;;14.80;99.90;;;;;;5015474;28;20419;-70
2022/09/15 06:21:12;;;;;;;1999.90;999.90;;;14.90;99.90;;;;;;5015184;28;21214;-70
2022/09/15 06:23:39;;;;;;;1999.90;999.90;;;14.90;99.90;;;;;;5015452;28;20406;-69
2022/09/15 06:26:17;;;;;;;1999.90;999.90;;;14.90;99.90;;;;;;5015334;28;20411;-70
2022/09/15 06:28:48;;;;;;;1999.90;999.90;;;15.00;99.90;;;;;;5015381;28;20430;-70
2022/09/15 06:31:14;;;;;;;1999.90;999.90;;;15.00;99.90;;;;;;5015537;28;20415;-70
2022/09/15 06:33:45;;;;;;;1999.90;999.90;;;15.00;99.90;;;;;;5015436;28;20913;-69
2022/09/15 06:36:12;;;;;;;1999.90;999.90;;;15.10;99.90;;;;;;5015312;28;20613;-70
2022/09/15 06:38:38;;;;;;;1999.90;999.90;;;15.10;99.90;;;;;;4997424;28;20430;-70
2022/09/15 06:41:04;;;;;;;1999.90;999.90;;;15.10;99.90;;;;;;5015122;28;20487;-69
2022/09/15 06:43:31;;;;;;;1999.90;999.90;;;15.10;99.90;;;;;;5015363;28;20430;-69
2022/09/15 06:46:12;;;;;;;1999.90;999.90;;;15.00;99.90;;;;;;5015290;28;20486;-69
2022/09/15 06:48:38;;;;;;;1999.90;999.90;;;15.00;99.90;;;;;;5015490;28;20404;-69
2022/09/15 06:51:06;;;;;;;1999.90;999.90;;;15.10;99.90;;;;;;5015143;28;20997;-69
2022/09/15 06:53:34;;;;;;;1999.90;999.90;;;15.20;99.90;;;;;;5015132;28;20419;-70
2022/09/15 06:56:04;;;;;;;1999.90;999.90;;;15.20;99.90;;;;;;5014851;28;20402;-69
2022/09/15 06:58:31;;;;;;;1999.90;999.90;;;15.30;99.90;;;;;;5014722;28;20411;-69
2022/09/15 07:01:02;;;;;;;1999.90;999.90;;;15.30;99.90;;;;;;5014720;28;20976;-69
2022/09/15 07:03:28;;;;;;;1999.90;999.90;;;15.30;99.90;;;;;;5014874;28;20410;-70
2022/09/15 07:05:54;;;;;;;1999.90;999.90;;;15.30;99.90;;;;;;5014616;28;20404;-69
2022/09/15 07:08:20;;;;;;;1999.90;999.90;;;15.30;99.90;;;;;;5014464;28;20410;-69
2022/09/15 07:10:45;;;;;;;1999.90;999.90;;;15.30;99.90;;;;;;5013996;28;20176;-69
2022/09/15 07:13:11;;;;;;;1999.90;999.90;;;15.30;99.90;;;;;;5014815;28;20283;-69
2022/09/15 07:15:38;;;;;;;1999.90;999.90;;;15.40;99.90;;;;;;5014820;28;20173;-69
2022/09/15 07:18:04;;;;;;;1999.90;999.90;;;15.40;99.90;;;;;;5014798;28;20892;-69
2022/09/15 07:20:30;;;;;;;1999.90;999.90;;;15.40;99.90;;;;;;5014573;28;20406;-69
2022/09/15 07:22:55;;;;;;;1999.90;999.90;;;15.40;99.90;;;;;;5014233;28;20443;-69
2022/09/15 07:25:21;;;;;;;1999.90;999.90;;;15.50;99.90;;;;;;5014275;28;20181;-70
2022/09/15 07:27:47;;;;;;;1999.90;999.90;;;15.50;99.90;;;;;;5013874;28;20186;-70
2022/09/15 07:30:13;;;;;;;1999.90;999.90;;;15.60;99.90;;;;;;5014184;28;20164;-70
2022/09/15 07:32:39;;;;;;;1999.90;999.90;;;15.70;99.90;;;;;;5014150;28;20195;-70
2022/09/15 07:35:06;;;;;;;1999.90;999.90;;;15.70;99.90;;;;;;5014187;28;20408;-69
2022/09/15 07:37:32;;;;;;;1999.90;999.90;;;15.60;99.90;;;;;;5013840;28;20423;-69
2022/09/15 07:39:58;;;;;;;1999.90;999.90;;;15.80;99.90;;;;;;5014219;28;20407;-70
2022/09/15 07:42:24;;;;;;;1999.90;999.90;;;15.80;99.90;;;;;;5013973;28;20465;-70
2022/09/15 07:44:50;;;;;;;1999.90;999.90;;;16.00;99.90;;;;;;5014071;28;20411;-70
2022/09/15 07:47:16;;;;;;;1999.90;999.90;;;16.10;99.90;;;;;;5013723;28;20404;-69
2022/09/15 07:49:42;;;;;;;1999.90;999.90;;;16.20;99.90;;;;;;5014067;28;20487;-70
2022/09/15 07:52:08;;;;;;;1999.90;999.90;;;16.40;99.90;;;;;;5013823;28;20195;-69
2022/09/15 07:54:34;;;;;;;1999.90;999.90;;;16.40;99.90;;;;;;5014075;28;20509;-69
2022/09/15 07:57:00;;;;;;;1999.90;999.90;;;16.60;99.90;;;;;;5013607;28;20488;-70
2022/09/15 07:59:26;;;;;;;1999.90;999.90;;;16.70;99.90;;;;;;5014338;28;20219;-70
2022/09/15 08:01:51;;;;;;;1999.90;999.90;;;16.80;99.90;;;;;;5013548;28;20205;-70
2022/09/15 08:04:17;;;;;;;1999.90;999.90;;;16.80;99.90;;;;;;5013653;28;20258;-69
2022/09/15 08:06:43;;;;;;;1999.90;999.90;;;16.90;99.90;;;;;;5013479;28;20169;-70
2022/09/15 08:09:13;;;;;;;1999.90;999.90;;;17.00;99.90;;;;;;5013611;28;20160;-70
2022/09/15 08:11:40;;;;;;;1999.90;999.90;;;17.10;99.90;;;;;;5013648;28;20425;-69
2022/09/15 08:14:05;;;;;;;1999.90;999.90;;;17.20;99.90;;;;;;5013532;28;20415;-70
2022/09/15 08:16:31;;;;;;;1999.90;999.90;;;17.20;99.90;;;;;;5013278;28;20450;-69
2022/09/15 08:18:56;;;;;;;1999.90;999.90;;;17.30;99.90;;;;;;5013365;28;20173;-70
2022/09/15 08:21:23;;;;;;;1999.90;999.90;;;17.30;99.90;;;;;;5013127;28;20210;-69
2022/09/15 08:23:54;;;;;;;1999.90;999.90;;;17.30;99.90;;;;;;5013454;28;20167;-70
2022/09/15 08:26:21;;;;;;;1999.90;999.90;;;17.20;99.90;;;;;;5013224;28;20764;-70
2022/09/15 08:28:47;;;;;;;1999.90;999.90;;;17.00;99.90;;;;;;5013103;28;20408;-70
2022/09/15 08:31:13;;;;;;;1999.90;999.90;;;16.80;99.90;;;;;;5013032;28;20411;-70
2022/09/15 08:33:39;;;;;;;1999.90;999.90;;;16.80;99.90;;;;;;5013137;28;20411;-70
2022/09/15 08:36:09;;;;;;;1999.90;999.90;;;16.80;99.90;;;;;;5012843;28;20414;-70
2022/09/15 08:38:36;;;;;;;1999.90;999.90;;;16.90;99.90;;;;;;5012988;28;20418;-70
2022/09/15 08:41:09;;;;;;;1999.90;999.90;;;17.10;99.90;;;;;;5012794;28;20462;-69
2022/09/15 08:43:59;;;;;;;1999.90;999.90;;;17.20;99.90;;;;;;5012953;28;20401;-70
2022/09/15 08:46:36;;;;;;;1999.90;999.90;;;17.10;99.90;;;;;;4975023;28;20439;-70
2022/09/15 08:49:18;;;;;;;1999.90;999.90;;;17.00;99.90;;;;;;5012940;28;20434;-70
2022/09/15 08:51:50;;;;;;;1999.90;999.90;;;17.00;99.90;;;;;;5012746;28;20425;-70
2022/09/15 08:54:21;;;;;;;1999.90;999.90;;;16.90;99.90;;;;;;5012786;28;20415;-70
2022/09/15 08:56:47;;;;;;;1999.90;999.90;;;16.90;99.90;;;;;;5012488;28;20411;-70
2022/09/15 08:59:15;;;;;;;1999.90;999.90;;;16.80;99.90;;;;;;5012646;28;20433;-69
2022/09/15 09:02:11;;;;;;;1999.90;999.90;;;16.80;99.90;;;;;;5012676;28;20457;-69
2022/09/15 09:04:45;;;;;;;1999.90;999.90;;;16.80;99.90;;;;;;5012910;28;20401;-70
2022/09/15 09:07:35;;;;;;;1999.90;999.90;;;16.80;99.90;;;;;;5012304;28;20886;-70
2022/09/15 09:10:14;;;;;;;1999.90;999.90;;;16.80;99.90;;;;;;5012313;28;20403;-70
2022/09/15 09:12:53;;;;;;;1999.90;999.90;;;17.00;99.90;;;;;;5012513;28;21002;-70
2022/09/15 09:15:45;;;;;;;1999.90;999.90;;;17.20;99.90;;;;;;5012638;28;20501;-70
2022/09/15 09:18:38;;;;;;;1999.90;999.90;;;17.40;99.90;;;;;;5012165;28;20848;-70
2022/09/15 09:21:25;;;;;;;1999.90;999.90;;;17.40;99.90;;;;;;5012074;28;20545;-70
2022/09/15 09:24:16;;;;;;;1999.90;999.90;;;17.40;99.90;;;;;;5012440;28;20768;-70
2022/09/15 09:26:42;;;;;;;1999.90;999.90;;;17.30;99.90;;;;;;5012262;28;20399;-70
2022/09/15 09:29:25;;;;;;;1999.90;999.90;;;17.30;99.90;;;;;;5010635;28;20422;-69
2022/09/15 09:31:53;;;;;;;1999.90;999.90;;;17.30;99.90;;;;;;5011889;28;20430;-69
2022/09/15 09:34:30;;;;;;;1999.90;999.90;;;17.50;99.90;;;;;;5008526;28;20454;-69
2022/09/15 09:37:09;;;;;;;1999.90;999.90;;;17.70;99.90;;;;;;5017104;28;20422;-68
2022/09/15 09:39:34;;;;;;;1999.90;999.90;;;17.70;99.90;;;;;;5007275;28;20393;-69
2022/09/15 09:42:01;;;;;;;1999.90;999.90;;;17.70;99.90;;;;;;5013925;28;20478;-67
2022/09/15 09:44:30;;;;;;;1999.90;999.90;;;17.80;99.90;;;;;;5012192;28;20631;-71
2022/09/15 09:47:00;;;;;;;1999.90;999.90;;;17.90;99.90;;;;;;5011558;28;20400;-69
2022/09/15 09:49:34;;;;;;;1999.90;999.90;;;17.90;99.90;;;;;;5011627;28;20409;-69
2022/09/15 09:52:02;;;;;;;1999.90;999.90;;;17.90;99.90;;;;;;5017861;28;20437;-70
2022/09/15 09:54:30;;;;;;;1999.90;999.90;;;17.90;99.90;;;;;;5011763;28;20422;-69
2022/09/15 09:57:20;;;;;;;1999.90;999.90;;;17.90;99.90;;;;;;5011527;28;20414;-69
2022/09/15 09:59:48;;;;;;;1999.90;999.90;;;18.10;99.90;;;;;;5003295;28;20424;-68
2022/09/15 10:02:14;;;;;;;1999.90;999.90;;;18.10;99.90;;;;;;5011757;28;20455;-68
2022/09/15 10:04:46;;;;;;;1999.90;999.90;;;18.10;99.90;;;;;;5011719;28;20397;-68
2022/09/15 10:07:14;;;;;;;1999.90;999.90;;;18.00;99.90;;;;;;5012892;28;20418;-68
2022/09/15 10:09:48;;;;;;;1999.90;999.90;;;18.00;99.90;;;;;;5015140;28;20435;-69
2022/09/15 10:12:20;;;;;;;1999.90;999.90;;;18.00;99.90;;;;;;4992261;28;20428;-69
2022/09/15 10:14:50;;;;;;;1999.90;999.90;;;18.10;99.90;;;;;;4992142;28;20437;-69
2022/09/15 10:17:44;;;;;;;1999.90;999.90;;;18.20;99.90;;;;;;4991914;28;20385;-69
2022/09/15 10:20:31;;;;;;;1999.90;999.90;;;18.30;99.90;;;;;;4992143;28;20937;-70
2022/09/15 10:23:23;;;;;;;1999.90;999.90;;;18.30;99.90;;;;;;4992058;28;20447;-69
2022/09/15 10:25:51;;;;;;;1999.90;999.90;;;18.20;99.90;;;;;;4992018;28;20876;-71
2022/09/15 10:28:20;;;;;;;1999.90;999.90;;;18.20;99.90;;;;;;4991772;28;20401;-68
2022/09/15 10:31:06;;;;;;;1999.90;999.90;;;18.30;99.90;;;;;;4992082;28;20438;-68
2022/09/15 10:33:41;;;;;;;1999.90;999.90;;;18.20;99.90;;;;;;4992175;28;20867;-68
2022/09/15 10:36:32;;;;;;;1999.90;999.90;;;18.10;99.90;;;;;;4991568;28;20453;-69
2022/09/15 10:39:35;;;;;;;1999.90;999.90;;;18.30;99.90;;;;;;4991705;28;20508;-68
2022/09/15 10:42:10;;;;;;;1999.90;999.90;;;18.50;99.90;;;;;;5008688;28;20461;-68
2022/09/15 10:45:13;;;;;;;1999.90;999.90;;;18.50;99.90;;;;;;5011474;28;20402;-68
2022/09/15 10:47:42;;;;;;;1999.90;999.90;;;18.80;99.90;;;;;;5014684;28;20383;-68
2022/09/15 10:50:24;;;;;;;1999.90;999.90;;;18.90;99.90;;;;;;5014963;28;20468;-69
2022/09/15 10:53:05;;;;;;;1999.90;999.90;;;19.10;99.90;;;;;;5014985;28;20471;-69
2022/09/15 10:55:55;;;;;;;1999.90;999.90;;;19.30;99.90;;;;;;5014630;28;20390;-68
2022/09/15 10:58:49;;;;;;;1999.90;999.90;;;19.50;99.90;;;;;;5014760;28;20478;-69
2022/09/15 11:01:27;;;;;;;1999.90;999.90;;;19.50;99.90;;;;;;5014629;28;20467;-68
2022/09/15 11:04:51;;;;;;;1999.90;999.90;;;19.40;99.90;;;;;;5014755;28;20460;-69
2022/09/15 11:07:34;;;;;;;1999.90;999.90;;;19.60;99.90;;;;;;4934653;29;20782;-69
2022/09/15 11:10:13;;;;;;;1999.90;999.90;;;19.80;99.90;;;;;;4934952;29;20506;-69
2022/09/15 11:12:39;;;;;;;1999.90;999.90;;;19.80;99.90;;;;;;4999410;28;20519;-69
2022/09/15 11:15:13;;;;;;;1999.90;999.90;;;19.80;99.90;;;;;;5014738;28;21030;-69
2022/09/15 11:17:49;;;;;;;1999.90;999.90;;;19.90;99.90;;;;;;5014001;28;20167;-69
2022/09/15 11:20:34;;;;;;;1999.90;999.90;;;19.90;99.90;;;;;;5015235;28;20388;-69
2022/09/15 11:23:32;;;;;;;1999.90;999.90;;;19.70;99.90;;;;;;5014764;28;20447;-69
2022/09/15 11:26:06;;;;;;;1999.90;999.90;;;19.70;99.90;;;;;;5009620;28;20960;-69
2022/09/15 11:28:42;;;;;;;1999.90;999.90;;;19.70;99.90;;;;;;5014551;28;20791;-69
2022/09/15 11:31:26;;;;;;;1999.90;999.90;;;19.40;99.90;;;;;;5014828;28;20407;-69
2022/09/15 11:33:57;;;;;;;1999.90;999.90;;;19.50;99.90;;;;;;5015378;28;20397;-69
2022/09/15 11:36:50;;;;;;;1999.90;999.90;;;19.50;99.90;;;;;;5014864;28;20397;-69
2022/09/15 11:39:21;;;;;;;1999.90;999.90;;;19.60;99.90;;;;;;5007178;28;20419;-69
2022/09/15 11:41:57;;;;;;;1999.90;999.90;;;19.50;99.90;;;;;;5014794;28;20494;-69
2022/09/15 11:44:35;;;;;;;1999.90;999.90;;;19.20;99.90;;;;;;5015630;28;20443;-69
2022/09/15 11:47:19;;;;;;;1999.90;999.90;;;19.10;99.90;;;;;;5015048;28;20400;-69
2022/09/15 11:49:51;;;;;;;1999.90;999.90;;;19.20;99.90;;;;;;5016303;28;20508;-69
2022/09/15 11:52:28;;;;;;;1999.90;999.90;;;19.30;99.90;;;;;;5013694;28;20455;-69
2022/09/15 11:54:56;;;;;;;1999.90;999.90;;;19.40;99.90;;;;;;5014773;28;20405;-69
2022/09/15 11:57:31;;;;;;;1999.90;999.90;;;19.30;99.90;;;;;;5014463;28;20422;-69
2022/09/15 12:00:01;;;;;;;1999.90;999.90;;;19.20;99.90;;;;;;5013859;28;20388;-70
2022/09/15 12:02:40;;;;;;;1999.90;999.90;;;19.30;99.90;;;;;;5013351;28;20543;-69
2022/09/15 12:05:10;;;;;;;1999.90;999.90;;;19.30;99.90;;;;;;5013732;28;20812;-69
2022/09/15 12:07:55;;;;;;;1999.90;999.90;;;19.20;99.90;;;;;;5013322;28;20836;-69
2022/09/15 12:10:30;;;;;;;1999.90;999.90;;;19.10;99.90;;;;;;5013631;28;20480;-69
2022/09/15 12:12:57;;;;;;;1999.90;999.90;;;19.10;99.90;;;;;;5014369;28;20834;-69
2022/09/15 12:15:26;;;;;;;1999.90;999.90;;;19.20;99.90;;;;;;5013597;28;20405;-70
2022/09/15 12:18:30;;;;;;;1999.90;999.90;;;19.20;99.90;;;;;;5013202;28;20407;-69